Innisfil, Ontario

11:31 PM EDT on October 24, 2014 (GMT -0400)
Knock Neighbourhood Weather | Change Station
CLOSE
Current Station
Personal Weather Station
Location: Innisfil, ONTARIO
Elevation: 856 ft
Nearby Weather Stations

Elev 856 ft 44.29 °N, 79.65 °W | Updated 17 seconds ago

Overcast
Overcast
44.1 °F
Feels Like 44 °F
N
0.0
Wind Variable Wind from West
Gusts 1.1 mph

Tomorrow is forecast to be nearly the same temperature as today.

Today
High -- | Low -- °F
--% Chance of Precip.
Yesterday
High -- | Low -- °F
Precip. -- in
7:45 AM 6:19 PM
New Moon, 2% visible
Pressure 29.93 in
Visibility 9.0 miles
Clouds Overcast 3000 ft
Windchill 44 °F
Dew Point 40 °F
Humidity 86%
Rainfall 0.00 in
Snow Depth Not available.
UV 0 out of 12
Pollen Not available.
Air Quality Not available.
Flu Activity Not available.
METAR CYBN 250300Z AUTO 16003KT 9SM OVC030 09/07 A2991 RMK SLP133

More Conditions Fewer Conditions

Pressure 29.93 in
Visibility 9.0 miles
Clouds Overcast 3000 ft
Windchill 44 °F
Dew Point 40 °F
Humidity 86%
Rainfall 0.00 in
Snow Depth Not available.
UV 0 out of 12
Pollen Not available.
Air Quality Not available.
Flu Activity Not available.
METAR CYBN 250300Z AUTO 16003KT 9SM OVC030 09/07 A2991 RMK SLP133

More Conditions Fewer Conditions

10-Day Weather Forecast

Almanac

Astronomy

Oct. 24, 2014 Rise Set
Actual Time 7:45 AM EDT 6:19 PM EDT
Civil Twilight 7:15 AM EDT 6:49 PM EDT
Nautical Twilight 6:41 AM EDT 7:23 PM EDT
Astronomical Twilight 6:07 AM EDT 7:56 PM EDT
Moon 8:23 AM EDT (10/24) 6:56 PM EDT (10/24)
Length of Visible Light 11h 34m
Length of Day
10h 34m
Tomorrow will be 2m 52s shorter.
New Moon, 2% of the Moon is Illuminated
Today
New Moon
Oct 30
First Quarter
Nov 6
Full
Nov 14
Last Quarter
Nov 22
New

Today's Extremes

Country Highs Country Lows

Community

WunderPhotos

Upload Photos

1,764,771 photos uploaded!

Nearby

Snow Depth

Not available.

Earthquake Activity

City Distance Mag. Time & Date
No recent earthquake activity has been reported nearby.
Minimum magnitude displayed is 2.5.

Coastal Water Temperatures

Place Temperature
No Stations Reporting

Nearby Weather Stations